Time;durP1;ratioP1;P1;durP2;ratioP2;P2;SDS_P1;SDS_P2;PMS_P1;PMS_P2;Temp;Humidity;BMP_temperature;BMP_pressure;BME280_temperature;BME280_humidity;BME280_pressure;Samples;Min_cycle;Max_cycle;Signal;HPM_P1;HPM_P2
2022/03/15 00:01:21;;;;;;;9.80;3.93;;;6.00;99.90;;;;;;5033473;28;20032;-76
2022/03/15 00:03:48;;;;;;;10.03;4.07;;;5.90;99.90;;;;;;5050698;28;20055;-75
2022/03/15 00:06:14;;;;;;;11.02;3.95;;;6.00;99.90;;;;;;5051129;28;20420;-74
2022/03/15 00:08:41;;;;;;;19.27;3.58;;;6.00;99.90;;;;;;5034242;28;20041;-74
2022/03/15 00:11:07;;;;;;;10.55;3.90;;;6.00;99.90;;;;;;5057305;28;20021;-75
2022/03/15 00:13:38;;;;;;;10.18;4.03;;;6.00;99.90;;;;;;5058263;28;20037;-75
2022/03/15 00:16:04;;;;;;;9.15;4.30;;;6.00;99.90;;;;;;5057653;28;20023;-75
2022/03/15 00:18:31;;;;;;;12.90;3.92;;;6.00;99.90;;;;;;5058610;28;20025;-75
2022/03/15 00:21:02;;;;;;;16.30;4.60;;;6.00;99.90;;;;;;5040300;28;20372;-74
2022/03/15 00:23:28;;;;;;;15.48;4.72;;;6.10;99.90;;;;;;5057966;28;20103;-75
2022/03/15 00:25:54;;;;;;;12.43;4.35;;;6.10;99.90;;;;;;5040181;28;20025;-75
2022/03/15 00:28:24;;;;;;;8.77;3.58;;;6.20;99.90;;;;;;5039906;28;20036;-75
2022/03/15 00:30:51;;;;;;;8.68;3.47;;;6.20;99.90;;;;;;5057779;28;20121;-75
2022/03/15 00:33:17;;;;;;;11.77;3.50;;;6.20;99.90;;;;;;5039535;28;20029;-85
2022/03/15 00:35:43;;;;;;;12.02;4.07;;;6.30;99.90;;;;;;5040148;28;20097;-76
2022/03/15 00:38:09;;;;;;;8.00;3.53;;;6.30;99.90;;;;;;5039937;28;20112;-75
2022/03/15 00:40:35;;;;;;;14.60;4.00;;;6.40;99.90;;;;;;5022909;28;20164;-75
2022/03/15 00:43:00;;;;;;;11.63;4.30;;;6.30;99.90;;;;;;5057674;28;20103;-75
2022/03/15 00:45:30;;;;;;;9.20;3.10;;;6.20;99.90;;;;;;5034965;28;20061;-75
2022/03/15 00:47:59;;;;;;;9.55;4.40;;;6.20;99.90;;;;;;5036019;28;20028;-75
2022/03/15 00:50:27;;;;;;;7.22;4.30;;;6.10;99.90;;;;;;5054479;28;20091;-75
2022/03/15 00:52:53;;;;;;;10.43;3.97;;;6.00;99.90;;;;;;5036186;28;20116;-75
2022/03/15 00:55:19;;;;;;;13.48;3.92;;;5.80;99.90;;;;;;5056459;28;20033;-75
2022/03/15 00:57:45;;;;;;;11.30;4.05;;;5.70;99.90;;;;;;5039676;28;20029;-85
2022/03/15 01:00:12;;;;;;;11.85;4.32;;;5.60;99.90;;;;;;5057623;28;20037;-75
2022/03/15 01:02:38;;;;;;;15.07;4.47;;;5.50;99.90;;;;;;5057779;28;20056;-75
2022/03/15 01:05:05;;;;;;;6.90;3.60;;;5.50;99.90;;;;;;5055183;28;20048;-75
2022/03/15 01:07:31;;;;;;;;;;;5.40;99.90;;;;;;5038351;28;20696;-75
2022/03/15 01:09:56;;;;;;;9.60;3.93;;;5.40;99.90;;;;;;5038488;28;19908;-75
2022/03/15 01:12:22;;;;;;;13.37;3.90;;;5.40;99.90;;;;;;5057164;28;20358;-75
2022/03/15 01:14:48;;;;;;;7.87;3.73;;;5.30;99.90;;;;;;5057659;28;20459;-85
2022/03/15 01:17:13;;;;;;;10.57;3.30;;;5.30;99.90;;;;;;5039688;28;20036;-75
2022/03/15 01:19:39;;;;;;;12.60;4.27;;;5.20;99.90;;;;;;5047511;28;20029;-74
2022/03/15 01:22:05;;;;;;;11.03;4.07;;;5.10;99.90;;;;;;5044528;28;20025;-75
2022/03/15 01:24:31;;;;;;;11.07;4.70;;;5.10;99.90;;;;;;5039812;28;20036;-76
2022/03/15 01:26:57;;;;;;;11.27;4.27;;;5.10;99.90;;;;;;5057218;28;20111;-75
2022/03/15 01:29:24;;;;;;;11.60;4.38;;;5.10;99.90;;;;;;5056760;28;20032;-75
2022/03/15 01:31:49;;;;;;;12.55;4.03;;;5.10;99.90;;;;;;5056689;28;20477;-75
2022/03/15 01:34:16;;;;;;;13.33;4.67;;;5.10;99.90;;;;;;5057444;28;20037;-75
2022/03/15 01:36:43;;;;;;;9.00;4.10;;;5.10;99.90;;;;;;5054903;28;20025;-75
2022/03/15 01:39:09;;;;;;;9.20;4.28;;;5.10;99.90;;;;;;5056082;28;20076;-75
2022/03/15 01:41:35;;;;;;;12.00;4.17;;;5.00;99.90;;;;;;5039284;28;20313;-87
2022/03/15 01:44:03;;;;;;;13.45;3.67;;;5.10;99.90;;;;;;5038817;28;20112;-75
2022/03/15 01:46:29;;;;;;;9.20;3.58;;;5.10;99.90;;;;;;5056801;28;20040;-75
2022/03/15 01:48:55;;;;;;;12.93;3.83;;;5.10;99.90;;;;;;5038905;28;20040;-75
2022/03/15 01:51:21;;;;;;;14.00;4.67;;;5.10;99.90;;;;;;5056027;28;20025;-75
2022/03/15 01:53:47;;;;;;;8.57;3.97;;;5.10;99.90;;;;;;5056644;28;20040;-75
2022/03/15 01:56:13;;;;;;;10.23;3.85;;;5.20;99.90;;;;;;5057003;28;20060;-75
2022/03/15 01:58:39;;;;;;;17.90;4.33;;;5.20;99.90;;;;;;5056678;28;20032;-86
2022/03/15 02:01:05;;;;;;;11.40;4.60;;;5.10;99.90;;;;;;5038485;28;20270;-74
2022/03/15 02:03:32;;;;;;;10.67;3.57;;;5.10;99.90;;;;;;5038556;28;20032;-74
2022/03/15 02:05:58;;;;;;;13.18;3.70;;;5.00;99.90;;;;;;5038326;28;20445;-74
2022/03/15 02:08:24;;;;;;;12.30;3.83;;;4.80;99.90;;;;;;5056176;28;20017;-75
2022/03/15 02:10:50;;;;;;;12.87;4.03;;;4.60;99.90;;;;;;5056011;28;20331;-75
2022/03/15 02:13:16;;;;;;;8.20;3.77;;;4.40;99.90;;;;;;5018841;28;20029;-75
2022/03/15 02:15:41;;;;;;;6.93;4.20;;;4.40;99.90;;;;;;5018984;28;20033;-77
2022/03/15 02:18:07;;;;;;;9.90;4.23;;;4.40;99.90;;;;;;5036420;28;20033;-75
2022/03/15 02:20:33;;;;;;;9.10;3.60;;;4.40;99.90;;;;;;5037168;28;20370;-75
2022/03/15 02:22:59;;;;;;;7.27;3.37;;;4.40;99.90;;;;;;5056340;28;20031;-75
2022/03/15 02:25:25;;;;;;;10.35;3.72;;;4.40;99.90;;;;;;5055969;28;20021;-87
2022/03/15 02:27:51;;;;;;;7.33;3.77;;;4.40;99.90;;;;;;5055788;28;20087;-76
2022/03/15 02:30:17;;;;;;;12.00;4.55;;;4.40;99.90;;;;;;5055975;28;20095;-75
2022/03/15 02:32:44;;;;;;;8.35;4.63;;;4.50;99.90;;;;;;5055582;28;20025;-75
2022/03/15 02:35:10;;;;;;;;;;;4.40;99.90;;;;;;5056568;28;20341;-75
2022/03/15 02:37:36;;;;;;;10.63;3.87;;;4.40;99.90;;;;;;5054950;28;19915;-75
2022/03/15 02:40:02;;;;;;;7.47;3.87;;;4.40;99.90;;;;;;5055501;28;20712;-74
2022/03/15 02:42:28;;;;;;;5.55;3.20;;;4.40;99.90;;;;;;5055807;28;20092;-89
2022/03/15 02:44:53;;;;;;;11.10;4.73;;;4.40;99.90;;;;;;5038187;28;20363;-75
2022/03/15 02:47:19;;;;;;;15.57;3.80;;;4.40;99.90;;;;;;5047471;28;20091;-75
2022/03/15 02:49:44;;;;;;;8.90;3.83;;;4.40;99.90;;;;;;5053553;28;20033;-75
2022/03/15 02:52:10;;;;;;;9.20;3.77;;;4.50;99.90;;;;;;5038121;28;20029;-76
2022/03/15 02:54:41;;;;;;;7.43;3.42;;;4.50;99.90;;;;;;5055474;28;20029;-75
2022/03/15 02:57:12;;;;;;;13.25;3.90;;;4.50;99.90;;;;;;5037753;28;20037;-75
2022/03/15 02:59:42;;;;;;;10.75;4.47;;;4.50;99.90;;;;;;5038088;28;20301;-88
2022/03/15 03:02:08;;;;;;;12.40;4.03;;;4.50;99.90;;;;;;5057305;28;20029;-75
2022/03/15 03:04:35;;;;;;;13.37;4.70;;;4.50;99.90;;;;;;5055315;28;20032;-75
2022/03/15 03:07:03;;;;;;;12.77;4.68;;;4.60;99.90;;;;;;5055735;28;20025;-77
2022/03/15 03:09:29;;;;;;;24.42;5.47;;;4.70;99.90;;;;;;5055520;28;20074;-75
2022/03/15 03:11:58;;;;;;;14.57;5.97;;;4.70;99.90;;;;;;5030022;28;20029;-75
2022/03/15 03:14:25;;;;;;;17.27;5.00;;;4.80;99.90;;;;;;5053516;28;20111;-75
2022/03/15 03:16:51;;;;;;;14.27;5.45;;;4.80;99.90;;;;;;5021297;28;20037;-75
2022/03/15 03:19:17;;;;;;;14.10;5.82;;;4.80;99.90;;;;;;5054999;28;20037;-76
2022/03/15 03:21:42;;;;;;;20.27;6.20;;;4.80;99.90;;;;;;5055385;28;20109;-75
2022/03/15 03:24:09;;;;;;;13.70;6.77;;;4.90;99.90;;;;;;5055116;28;20418;-88
2022/03/15 03:26:37;;;;;;;15.02;6.05;;;4.90;99.90;;;;;;5037665;28;20427;-75
2022/03/15 03:29:11;;;;;;;17.40;5.97;;;5.00;99.90;;;;;;5031448;28;20021;-75
2022/03/15 03:31:42;;;;;;;18.58;5.95;;;5.00;99.90;;;;;;5054849;28;20430;-86
2022/03/15 03:34:09;;;;;;;16.63;6.18;;;5.10;99.90;;;;;;5053891;28;20060;-76
2022/03/15 03:36:36;;;;;;;;;;;5.00;99.90;;;;;;5038626;28;20036;-75
2022/03/15 03:39:05;;;;;;;17.85;5.97;;;5.10;99.90;;;;;;5019929;28;19927;-76
2022/03/15 03:41:31;;;;;;;13.80;6.03;;;5.10;99.90;;;;;;5055049;28;20434;-75
2022/03/15 03:43:57;;;;;;;10.50;4.97;;;5.10;99.90;;;;;;5058026;28;20025;-75
2022/03/15 03:46:23;;;;;;;13.43;6.23;;;5.20;99.90;;;;;;5044099;28;20320;-75
2022/03/15 03:48:53;;;;;;;13.75;6.43;;;5.20;99.90;;;;;;5041118;28;20025;-75
2022/03/15 03:51:18;;;;;;;12.70;5.35;;;5.20;99.90;;;;;;5056809;28;20068;-75
2022/03/15 03:53:44;;;;;;;15.97;5.73;;;5.20;99.90;;;;;;5041157;28;20106;-75
2022/03/15 03:56:10;;;;;;;11.97;5.37;;;5.20;99.90;;;;;;5021572;28;20029;-79
2022/03/15 03:58:36;;;;;;;12.43;5.83;;;5.30;99.90;;;;;;5042119;28;20032;-75
2022/03/15 04:01:02;;;;;;;13.13;5.90;;;5.30;99.90;;;;;;5037883;28;20017;-75
2022/03/15 04:03:29;;;;;;;12.32;5.47;;;5.30;99.90;;;;;;5039969;28;20025;-75
2022/03/15 04:05:56;;;;;;;;;;;5.30;99.90;;;;;;5059188;28;20041;-75
2022/03/15 04:08:22;;;;;;;;;;;5.30;99.90;;;;;;5041390;28;19905;-75
2022/03/15 04:10:49;;;;;;;14.27;5.05;;;5.20;99.90;;;;;;5057821;28;20325;-75
2022/03/15 04:13:17;;;;;;;15.20;5.53;;;5.30;99.90;;;;;;5029918;28;20068;-75
2022/03/15 04:15:43;;;;;;;16.70;6.43;;;5.30;99.90;;;;;;5041037;28;20079;-75
2022/03/15 04:18:10;;;;;;;21.40;7.25;;;5.20;99.90;;;;;;5024527;28;20029;-75
2022/03/15 04:20:36;;;;;;;12.55;5.82;;;5.20;99.90;;;;;;5057856;28;20086;-75
2022/03/15 04:23:02;;;;;;;18.60;6.50;;;5.20;99.90;;;;;;5057671;28;20029;-75
2022/03/15 04:25:27;;;;;;;14.75;6.85;;;5.20;99.90;;;;;;5058468;28;20029;-75
2022/03/15 04:27:56;;;;;;;10.60;6.07;;;5.30;99.90;;;;;;5058276;28;20098;-75
2022/03/15 04:30:24;;;;;;;15.07;6.28;;;5.30;99.90;;;;;;5040669;28;20116;-75
2022/03/15 04:32:50;;;;;;;20.45;6.60;;;5.30;99.90;;;;;;5058066;28;20024;-75
2022/03/15 04:35:15;;;;;;;19.07;7.57;;;5.40;99.90;;;;;;5028886;28;20344;-75
2022/03/15 04:37:41;;;;;;;19.97;7.50;;;5.40;99.90;;;;;;5055912;28;20033;-75
2022/03/15 04:40:07;;;;;;;15.90;7.60;;;5.40;99.90;;;;;;5031981;28;20048;-88
2022/03/15 04:42:34;;;;;;;20.63;8.55;;;5.40;99.90;;;;;;5049586;28;20037;-75
2022/03/15 04:45:00;;;;;;;22.58;7.65;;;5.50;99.90;;;;;;5048948;28;20276;-75
2022/03/15 04:47:26;;;;;;;23.47;7.93;;;5.40;99.90;;;;;;5054845;28;20048;-87
2022/03/15 04:49:51;;;;;;;22.03;9.07;;;5.50;99.90;;;;;;5053534;28;20321;-75
2022/03/15 04:52:17;;;;;;;17.97;8.40;;;5.50;99.90;;;;;;5050965;28;20068;-75
2022/03/15 04:54:43;;;;;;;20.27;9.30;;;5.50;99.90;;;;;;5053588;28;20025;-75
2022/03/15 04:57:09;;;;;;;17.45;8.82;;;5.60;99.90;;;;;;5055749;28;20316;-74
2022/03/15 04:59:35;;;;;;;17.77;8.30;;;5.70;99.90;;;;;;5052353;28;20033;-75
2022/03/15 05:02:00;;;;;;;19.60;8.63;;;5.70;99.90;;;;;;5054056;28;20473;-75
2022/03/15 05:04:26;;;;;;;18.63;8.13;;;5.60;99.90;;;;;;5037336;28;20036;-85
2022/03/15 05:06:52;;;;;;;19.45;8.35;;;5.60;99.90;;;;;;5051061;28;20025;-75
2022/03/15 05:09:18;;;;;;;15.00;7.17;;;5.60;99.90;;;;;;5038813;28;20031;-74
2022/03/15 05:11:46;;;;;;;15.90;8.33;;;5.60;99.90;;;;;;5037025;28;20025;-75
2022/03/15 05:14:12;;;;;;;17.98;8.73;;;5.60;99.90;;;;;;5055538;28;20029;-75
2022/03/15 05:16:37;;;;;;;23.80;10.73;;;5.50;99.90;;;;;;5056586;28;20021;-75
2022/03/15 05:19:03;;;;;;;23.50;9.70;;;5.50;99.90;;;;;;5055874;28;20060;-75
2022/03/15 05:21:29;;;;;;;23.00;9.63;;;5.50;99.90;;;;;;5051762;28;20025;-84
2022/03/15 05:23:55;;;;;;;26.87;9.67;;;5.50;99.90;;;;;;5035637;28;20552;-75
2022/03/15 05:26:22;;;;;;;24.20;11.20;;;5.50;99.90;;;;;;5033017;28;20036;-75
2022/03/15 05:28:49;;;;;;;31.42;12.13;;;5.60;99.90;;;;;;5053046;28;20048;-74
2022/03/15 05:31:19;;;;;;;;;;;5.60;99.90;;;;;;5054059;28;20599;-75
2022/03/15 05:33:46;;;;;;;27.50;10.90;;;5.60;99.90;;;;;;5054381;28;19913;-75
2022/03/15 05:36:13;;;;;;;28.42;12.68;;;5.60;99.90;;;;;;5055778;28;20344;-75
2022/03/15 05:38:39;;;;;;;22.52;9.55;;;5.70;99.90;;;;;;5018489;28;20037;-75
2022/03/15 05:41:07;;;;;;;28.08;10.70;;;5.60;99.90;;;;;;5051871;28;20060;-74
2022/03/15 05:43:34;;;;;;;27.48;10.05;;;5.60;99.90;;;;;;5054222;28;20033;-74
2022/03/15 05:45:59;;;;;;;21.42;9.43;;;5.50;99.90;;;;;;5055540;28;20028;-86
2022/03/15 05:48:25;;;;;;;22.13;10.87;;;5.50;99.90;;;;;;5055434;28;20479;-75
2022/03/15 05:50:51;;;;;;;22.17;10.67;;;5.60;99.90;;;;;;5055653;28;20068;-75
2022/03/15 05:53:17;;;;;;;26.77;11.38;;;5.50;99.90;;;;;;5038659;28;20060;-86
2022/03/15 05:55:42;;;;;;;27.23;11.97;;;5.50;99.90;;;;;;5010983;28;20490;-75
2022/03/15 05:58:09;;;;;;;25.57;10.57;;;5.50;99.90;;;;;;5019265;28;20478;-75
2022/03/15 06:00:34;;;;;;;27.23;11.98;;;5.40;99.90;;;;;;5041070;28;20368;-75
2022/03/15 06:03:00;;;;;;;28.83;13.03;;;5.50;99.90;;;;;;5037668;28;20075;-75
2022/03/15 06:05:27;;;;;;;34.20;13.23;;;5.60;99.90;;;;;;5056071;28;20032;-75
2022/03/15 06:07:53;;;;;;;23.95;11.88;;;5.60;99.90;;;;;;5055429;28;20245;-74
2022/03/15 06:10:23;;;;;;;26.42;12.40;;;5.60;99.90;;;;;;5051060;28;20025;-74
2022/03/15 06:12:50;;;;;;;25.85;13.50;;;5.60;99.90;;;;;;5038724;28;20423;-75
2022/03/15 06:15:17;;;;;;;26.90;12.07;;;5.60;99.90;;;;;;5042052;28;20114;-74
2022/03/15 06:17:48;;;;;;;30.50;11.82;;;5.70;99.90;;;;;;5056051;28;20028;-74
2022/03/15 06:20:16;;;;;;;24.25;11.90;;;5.70;99.90;;;;;;5055807;28;20037;-75
2022/03/15 06:22:43;;;;;;;29.55;11.40;;;5.80;99.90;;;;;;5055670;28;20440;-74
2022/03/15 06:25:09;;;;;;;25.88;11.85;;;5.90;99.90;;;;;;5038001;28;20068;-75
2022/03/15 06:27:35;;;;;;;25.90;12.35;;;5.80;99.90;;;;;;5055886;28;20508;-86
2022/03/15 06:30:01;;;;;;;25.43;12.43;;;5.80;99.90;;;;;;5056356;28;20029;-75
2022/03/15 06:32:27;;;;;;;31.60;12.73;;;5.80;99.90;;;;;;5038147;28;20032;-75
2022/03/15 06:34:52;;;;;;;25.10;13.13;;;5.90;99.90;;;;;;5055481;28;20025;-75
2022/03/15 06:37:19;;;;;;;27.03;13.07;;;5.90;99.90;;;;;;5055585;28;20028;-75
2022/03/15 06:39:44;;;;;;;29.63;13.30;;;5.90;99.90;;;;;;5055328;28;20130;-75
2022/03/15 06:42:11;;;;;;;34.50;13.10;;;5.90;99.90;;;;;;5037739;28;20044;-75
2022/03/15 06:44:42;;;;;;;31.23;12.13;;;5.90;99.90;;;;;;5055294;28;20027;-86
2022/03/15 06:47:08;;;;;;;31.85;13.10;;;5.90;99.90;;;;;;5055048;28;20109;-75
2022/03/15 06:49:35;;;;;;;27.87;13.10;;;5.90;99.90;;;;;;5055549;28;20025;-75
2022/03/15 06:52:00;;;;;;;37.13;13.63;;;5.90;99.90;;;;;;5037782;28;20029;-75
2022/03/15 06:54:26;;;;;;;29.47;14.53;;;6.00;99.90;;;;;;5036836;28;20436;-75
2022/03/15 06:56:53;;;;;;;31.43;12.87;;;6.00;99.90;;;;;;5028951;28;20420;-75
2022/03/15 06:59:19;;;;;;;33.63;12.82;;;6.00;99.90;;;;;;5047045;28;20052;-75
2022/03/15 07:01:45;;;;;;;27.83;12.95;;;6.00;99.90;;;;;;5054176;28;20060;-78
2022/03/15 07:04:11;;;;;;;35.43;13.33;;;6.10;99.90;;;;;;5050508;28;20068;-75
2022/03/15 07:06:39;;;;;;;34.50;15.13;;;6.10;99.90;;;;;;5053705;28;20469;-75
2022/03/15 07:09:05;;;;;;;32.88;13.88;;;6.10;99.90;;;;;;5033188;28;20126;-74
2022/03/15 07:11:31;;;;;;;32.53;15.07;;;6.20;99.90;;;;;;5053449;28;20408;-75
2022/03/15 07:13:57;;;;;;;38.63;16.30;;;6.20;99.90;;;;;;5033731;28;20025;-75
2022/03/15 07:16:22;;;;;;;35.87;15.10;;;6.30;99.90;;;;;;5047058;28;20028;-74
2022/03/15 07:18:48;;;;;;;32.27;14.90;;;6.30;99.90;;;;;;5029943;28;20032;-75
2022/03/15 07:21:14;;;;;;;30.70;14.23;;;6.30;99.90;;;;;;5036119;28;20032;-75
2022/03/15 07:23:39;;;;;;;24.53;13.40;;;6.40;99.90;;;;;;5019275;28;20045;-75
2022/03/15 07:26:05;;;;;;;35.90;13.97;;;6.50;99.90;;;;;;5033977;28;20083;-75
2022/03/15 07:28:31;;;;;;;35.53;15.30;;;6.60;99.90;;;;;;5053308;28;20033;-87
2022/03/15 07:30:57;;;;;;;29.90;15.10;;;6.60;99.90;;;;;;5052223;28;20297;-75
2022/03/15 07:33:22;;;;;;;31.38;14.70;;;6.60;99.90;;;;;;5036141;28;20052;-75
2022/03/15 07:35:48;;;;;;;28.63;13.43;;;6.70;99.90;;;;;;5053037;28;20102;-75
2022/03/15 07:38:17;;;;;;;30.57;14.87;;;6.80;99.90;;;;;;5053863;28;20404;-76
2022/03/15 07:40:43;;;;;;;35.35;14.50;;;6.80;99.90;;;;;;5048476;28;20131;-75
2022/03/15 07:43:10;;;;;;;27.55;13.55;;;6.90;99.90;;;;;;5052480;28;20036;-75
2022/03/15 07:45:35;;;;;;;35.92;14.52;;;7.00;99.90;;;;;;5035892;28;20048;-89
2022/03/15 07:48:01;;;;;;;28.83;12.80;;;7.10;99.90;;;;;;5052641;28;20020;-75
2022/03/15 07:50:27;;;;;;;32.60;13.67;;;7.10;99.90;;;;;;5050740;28;20377;-75
2022/03/15 07:52:53;;;;;;;32.10;13.70;;;7.20;99.90;;;;;;5036441;28;20128;-75
2022/03/15 07:55:21;;;;;;;38.80;13.85;;;7.20;99.90;;;;;;5016575;28;20375;-75
2022/03/15 07:57:47;;;;;;;25.13;13.07;;;7.30;99.90;;;;;;5040173;28;20025;-75
2022/03/15 08:00:14;;;;;;;29.45;13.43;;;7.40;99.90;;;;;;5035679;28;20036;-82
2022/03/15 08:02:41;;;;;;;25.73;13.50;;;7.40;99.90;;;;;;5036693;28;20037;-76
2022/03/15 08:05:07;;;;;;;27.27;13.45;;;7.50;99.90;;;;;;5034062;28;20316;-75
2022/03/15 08:07:36;;;;;;;28.33;14.02;;;7.60;99.90;;;;;;5054187;28;20078;-75
2022/03/15 08:10:04;;;;;;;25.90;13.35;;;7.70;99.90;;;;;;5053337;28;20033;-75
2022/03/15 08:12:30;;;;;;;29.23;13.02;;;7.70;99.90;;;;;;5053049;28;20036;-75
2022/03/15 08:14:55;;;;;;;28.88;14.10;;;7.80;99.90;;;;;;5049130;28;20409;-76
2022/03/15 08:17:21;;;;;;;34.00;13.32;;;7.90;99.90;;;;;;5052345;28;20025;-76
2022/03/15 08:19:47;;;;;;;29.13;13.67;;;7.90;99.90;;;;;;5047725;28;20037;-75
2022/03/15 08:22:13;;;;;;;27.13;13.13;;;8.00;99.90;;;;;;5035225;28;20332;-76
2022/03/15 08:24:39;;;;;;;27.23;12.77;;;8.10;99.90;;;;;;5050213;28;20037;-86
2022/03/15 08:27:04;;;;;;;26.27;12.53;;;8.10;99.90;;;;;;5052915;28;20032;-75
2022/03/15 08:29:31;;;;;;;22.97;12.30;;;8.20;99.90;;;;;;5051125;28;20064;-76
2022/03/15 08:31:57;;;;;;;34.10;13.35;;;8.30;99.90;;;;;;5045287;28;20033;-75
2022/03/15 08:34:23;;;;;;;31.35;12.38;;;8.40;99.90;;;;;;5054234;28;20025;-76
2022/03/15 08:36:49;;;;;;;26.90;11.57;;;8.40;99.90;;;;;;5042201;28;20039;-89
2022/03/15 08:39:15;;;;;;;25.30;12.00;;;8.50;99.90;;;;;;5052731;28;20150;-76
2022/03/15 08:41:42;;;;;;;23.67;12.60;;;8.60;99.90;;;;;;5054160;28;20360;-75
2022/03/15 08:44:08;;;;;;;22.88;11.63;;;8.70;99.90;;;;;;5054318;28;20289;-75
2022/03/15 08:46:34;;;;;;;25.58;13.32;;;8.80;99.90;;;;;;5052724;28;20037;-75
2022/03/15 08:49:01;;;;;;;29.10;12.27;;;8.80;99.90;;;;;;5045752;28;20435;-76
2022/03/15 08:51:26;;;;;;;28.77;12.43;;;8.80;99.90;;;;;;5052519;28;20033;-76
2022/03/15 08:53:52;;;;;;;28.90;12.40;;;8.90;99.90;;;;;;5053274;28;20032;-88
2022/03/15 08:56:18;;;;;;;26.63;12.03;;;9.00;99.90;;;;;;5046918;28;20017;-75
2022/03/15 08:58:43;;;;;;;31.57;11.93;;;9.10;99.90;;;;;;5054305;28;20056;-75
2022/03/15 09:01:09;;;;;;;26.57;11.63;;;9.20;99.90;;;;;;5055011;28;20027;-76
2022/03/15 09:03:35;;;;;;;22.30;10.83;;;9.30;99.90;;;;;;5055036;28;20120;-76
2022/03/15 09:06:01;;;;;;;26.83;10.70;;;9.30;99.90;;;;;;5054700;28;20056;-75
2022/03/15 09:08:27;;;;;;;23.95;10.52;;;9.40;99.90;;;;;;5053936;28;20282;-75
2022/03/15 09:10:53;;;;;;;24.30;11.00;;;9.40;99.90;;;;;;5052999;28;20366;-75
2022/03/15 09:13:19;;;;;;;31.80;11.50;;;9.50;99.90;;;;;;5054193;28;20030;-75
2022/03/15 09:15:45;;;;;;;20.97;10.27;;;9.60;99.90;;;;;;5052839;28;20029;-75
2022/03/15 09:18:10;;;;;;;24.40;10.63;;;9.60;99.90;;;;;;5052019;28;20270;-76
2022/03/15 09:20:36;;;;;;;22.13;10.67;;;9.70;99.90;;;;;;5042671;28;20102;-76
2022/03/15 09:23:02;;;;;;;22.77;10.90;;;9.80;99.90;;;;;;5054715;28;20029;-75
2022/03/15 09:25:28;;;;;;;24.83;10.48;;;9.90;99.90;;;;;;5055683;28;20025;-76
2022/03/15 09:27:54;;;;;;;22.90;10.67;;;10.00;99.90;;;;;;5052188;28;20040;-75
2022/03/15 09:30:20;;;;;;;22.05;10.88;;;10.20;99.90;;;;;;5052820;28;20103;-88
2022/03/15 09:32:45;;;;;;;22.50;10.40;;;10.40;99.90;;;;;;5040694;28;20055;-75
2022/03/15 09:35:11;;;;;;;21.15;9.98;;;10.60;99.90;;;;;;5033787;28;20362;-75
2022/03/15 09:37:38;;;;;;;23.90;11.10;;;10.60;99.90;;;;;;5050721;28;20036;-75
2022/03/15 09:40:08;;;;;;;17.70;9.32;;;10.60;99.90;;;;;;5046746;28;20107;-75
2022/03/15 09:42:36;;;;;;;25.25;9.98;;;10.60;99.90;;;;;;5052389;28;20468;-76
2022/03/15 09:45:02;;;;;;;21.77;11.60;;;10.40;99.90;;;;;;5038359;28;20469;-76
2022/03/15 09:47:32;;;;;;;25.50;10.25;;;10.40;99.90;;;;;;5056459;28;20408;-76
2022/03/15 09:50:01;;;;;;;21.13;10.88;;;10.50;99.90;;;;;;5019684;28;20033;-77
2022/03/15 09:52:28;;;;;;;21.05;10.63;;;10.70;99.90;;;;;;5036614;28;20033;-76
2022/03/15 09:54:55;;;;;;;19.20;9.88;;;10.60;99.90;;;;;;5040492;28;20415;-76
2022/03/15 09:57:21;;;;;;;21.10;9.95;;;10.50;99.90;;;;;;5049285;28;20021;-77
2022/03/15 09:59:51;;;;;;;18.27;9.90;;;10.40;99.90;;;;;;5052217;28;20024;-75
2022/03/15 10:02:17;;;;;;;17.90;10.00;;;10.40;99.90;;;;;;5046425;28;20029;-86
2022/03/15 10:04:43;;;;;;;16.90;8.53;;;10.30;99.90;;;;;;5031249;28;20022;-76
2022/03/15 10:07:10;;;;;;;23.58;9.90;;;10.30;99.90;;;;;;5035683;28;20021;-88
2022/03/15 10:09:36;;;;;;;;;;;10.30;99.90;;;;;;5034354;28;20083;-86
2022/03/15 10:12:03;;;;;;;25.48;9.25;;;10.40;99.90;;;;;;5053171;28;19905;-76
2022/03/15 10:14:40;;;;;;;19.00;9.57;;;10.50;99.90;;;;;;5058803;28;20033;-76
2022/03/15 10:17:06;;;;;;;23.33;8.80;;;10.60;99.90;;;;;;5056529;28;20035;-76
2022/03/15 10:19:33;;;;;;;18.57;8.30;;;10.60;99.90;;;;;;5035047;28;20041;-76
2022/03/15 10:21:59;;;;;;;15.82;7.63;;;10.70;99.90;;;;;;5053399;28;20430;-88
2022/03/15 10:24:27;;;;;;;17.27;7.73;;;10.70;99.90;;;;;;5052594;28;20066;-76
2022/03/15 10:26:55;;;;;;;20.60;7.80;;;10.60;99.90;;;;;;5052286;28;20025;-75
2022/03/15 10:29:23;;;;;;;13.95;7.95;;;10.60;99.90;;;;;;5053191;28;20029;-75
2022/03/15 10:31:51;;;;;;;16.33;7.53;;;10.60;99.90;;;;;;5048810;28;20150;-76
2022/03/15 10:34:19;;;;;;;17.90;7.85;;;10.50;99.90;;;;;;5031303;28;20052;-87
2022/03/15 10:36:47;;;;;;;17.13;8.32;;;10.50;99.90;;;;;;5047640;28;20056;-75
2022/03/15 10:39:14;;;;;;;17.30;8.05;;;10.50;99.90;;;;;;5031401;28;20083;-76
2022/03/15 10:42:00;;;;;;;22.27;7.95;;;10.60;99.90;;;;;;5048612;28;20037;-75
2022/03/15 10:44:35;;;;;;;19.13;7.85;;;10.70;99.90;;;;;;5026795;28;20037;-76
2022/03/15 10:47:13;;;;;;;12.85;7.55;;;10.70;99.90;;;;;;5045175;28;20640;-76
2022/03/15 10:49:59;;;;;;;21.45;7.78;;;10.80;99.90;;;;;;5015759;28;20285;-75
2022/03/15 10:52:31;;;;;;;16.88;7.63;;;10.80;99.90;;;;;;5033372;28;20024;-86
2022/03/15 10:55:10;;;;;;;14.02;7.57;;;11.10;99.90;;;;;;5044971;28;20316;-75
2022/03/15 10:57:59;;;;;;;11.90;6.85;;;11.30;99.90;;;;;;5018817;28;20039;-76
2022/03/15 11:00:30;;;;;;;17.50;6.70;;;11.60;99.90;;;;;;5049191;28;20103;-75
2022/03/15 11:02:57;;;;;;;16.50;6.55;;;11.90;99.90;;;;;;5050066;28;20094;-75
2022/03/15 11:05:35;;;;;;;13.35;6.05;;;12.30;99.90;;;;;;5047230;28;20375;-76
2022/03/15 11:08:17;;;;;;;14.82;5.90;;;12.80;99.90;;;;;;5047473;28;20029;-77
2022/03/15 11:10:46;;;;;;;9.88;5.03;;;13.10;99.90;;;;;;5049420;28;20052;-76
2022/03/15 11:13:13;;;;;;;11.02;4.50;;;13.30;99.90;;;;;;5037451;28;20063;-76
2022/03/15 11:15:42;;;;;;;11.40;4.88;;;13.50;99.90;;;;;;5019806;28;20029;-76
2022/03/15 11:18:10;;;;;;;7.53;4.30;;;13.70;99.90;;;;;;5038790;28;20067;-76
2022/03/15 11:20:41;;;;;;;25.27;5.90;;;13.90;99.90;;;;;;5048367;28;20021;-76
2022/03/15 11:23:11;;;;;;;11.65;4.10;;;14.00;99.90;;;;;;5047753;28;20025;-91
2022/03/15 11:25:41;;;;;;;7.40;3.13;;;14.30;99.90;;;;;;5040554;28;20423;-77
2022/03/15 11:28:10;;;;;;;6.40;3.83;;;14.40;99.90;;;;;;5046942;28;20052;-76
2022/03/15 11:30:36;;;;;;;16.10;3.55;;;14.30;99.90;;;;;;5039665;28;20025;-87
2022/03/15 11:33:04;;;;;;;7.53;3.10;;;14.40;99.90;;;;;;5046694;28;20032;-78
2022/03/15 11:35:32;;;;;;;9.90;3.80;;;14.60;99.90;;;;;;5032550;28;20075;-89
2022/03/15 11:38:00;;;;;;;4.40;2.55;;;14.70;99.90;;;;;;5028957;28;20032;-76
2022/03/15 11:40:27;;;;;;;7.78;2.63;;;14.80;99.90;;;;;;5050919;28;20041;-86
2022/03/15 11:42:58;;;;;;;8.73;3.55;;;14.80;99.90;;;;;;5049046;28;20091;-77
2022/03/15 11:45:30;;;;;;;5.82;2.60;;;14.90;99.90;;;;;;5022735;28;20029;-77
2022/03/15 11:48:50;;;;;;;6.40;2.50;;;15.10;99.90;;;;;;5038940;28;20055;-77
2022/03/15 11:51:43;;;;;;;6.18;2.20;;;15.30;99.90;;;;;;4984188;28;20116;-77
2022/03/15 11:54:39;;;;;;;11.40;2.67;;;15.50;99.40;;;;;;5041870;28;20029;-76
2022/03/15 11:57:40;;;;;;;6.65;2.42;;;15.50;99.10;;;;;;5049012;28;20517;-77
2022/03/15 12:00:06;;;;;;;7.63;2.45;;;15.60;99.10;;;;;;5043458;28;20033;-78
2022/03/15 12:02:40;;;;;;;8.93;2.45;;;15.60;99.30;;;;;;5045934;28;20028;-77
2022/03/15 12:05:17;;;;;;;9.60;2.40;;;15.80;98.70;;;;;;5023337;28;20124;-86
2022/03/15 12:07:46;;;;;;;5.55;2.08;;;15.90;98.80;;;;;;5031526;28;20020;-77
2022/03/15 12:10:28;;;;;;;6.40;2.28;;;16.10;99.20;;;;;;5029458;28;20111;-76
2022/03/15 12:13:02;;;;;;;6.63;1.55;;;16.00;99.90;;;;;;5050110;28;20024;-77
2022/03/15 12:15:43;;;;;;;5.03;2.10;;;16.20;98.60;;;;;;5042788;28;20428;-78
2022/03/15 12:21:09;;;;;;;5.35;2.20;;;16.30;97.50;;;;;;4995642;28;20081;-80
2022/03/15 12:23:44;;;;;;;6.20;2.00;;;16.50;97.80;;;;;;4995244;28;20130;-77
2022/03/15 12:26:28;;;;;;;5.87;2.87;;;16.60;97.90;;;;;;4970688;28;20506;-77
2022/03/15 12:29:06;;;;;;;12.20;3.05;;;16.70;97.00;;;;;;4988697;28;20272;-77
2022/03/15 12:31:39;;;;;;;6.53;4.05;;;16.80;96.20;;;;;;4995475;28;20023;-78
2022/03/15 12:34:15;;;;;;;17.48;3.75;;;16.30;97.90;;;;;;4991121;28;20113;-78
2022/03/15 12:36:48;;;;;;;9.43;3.77;;;15.40;99.40;;;;;;4996779;28;20038;-78
2022/03/15 12:39:18;;;;;;;15.85;4.75;;;14.90;99.70;;;;;;5014555;28;20041;-83
2022/03/15 12:41:48;;;;;;;7.35;3.38;;;14.40;99.90;;;;;;5000803;28;20033;-78
2022/03/15 12:44:14;;;;;;;6.07;3.60;;;14.20;99.90;;;;;;4993208;28;20121;-82
2022/03/15 12:46:42;;;;;;;5.30;3.40;;;14.00;99.90;;;;;;4978883;28;20432;-77
2022/03/15 12:49:10;;;;;;;10.07;3.95;;;14.00;99.90;;;;;;4977800;28;20030;-78
2022/03/15 12:51:41;;;;;;;6.93;3.53;;;14.00;99.90;;;;;;4991785;28;20035;-78